createdAt,value
2023-05-17T00:01:47.206Z,7.60
2023-05-17T00:04:13.806Z,7.75
2023-05-17T00:06:41.011Z,7.42
2023-05-17T00:09:07.717Z,7.56
2023-05-17T00:11:34.515Z,7.51
2023-05-17T00:14:01.051Z,7.72
2023-05-17T00:16:28.185Z,7.40
2023-05-17T00:18:54.785Z,7.63
2023-05-17T00:21:21.641Z,7.55
2023-05-17T00:23:48.109Z,7.54
2023-05-17T00:26:14.617Z,7.35
2023-05-17T00:28:41.138Z,7.03
2023-05-17T00:31:07.582Z,7.09
2023-05-17T00:33:34.017Z,7.16
2023-05-17T00:36:00.582Z,6.83
2023-05-17T00:38:27.020Z,7.33
2023-05-17T00:40:54.107Z,7.53
2023-05-17T00:43:20.690Z,7.44
2023-05-17T00:45:49.212Z,7.36
2023-05-17T00:48:16.208Z,6.96
2023-05-17T00:50:43.032Z,7.23
2023-05-17T00:53:10.033Z,7.10
2023-05-17T00:55:36.608Z,7.51
2023-05-17T00:58:03.367Z,7.51
2023-05-17T01:00:29.933Z,7.48
2023-05-17T01:02:56.556Z,7.64
2023-05-17T01:05:23.076Z,7.85
2023-05-17T01:07:49.524Z,7.62
2023-05-17T01:10:16.128Z,7.53
2023-05-17T01:12:45.614Z,7.11
2023-05-17T01:15:22.848Z,7.30
2023-05-17T01:18:14.909Z,7.23
2023-05-17T01:20:43.964Z,7.32
2023-05-17T01:23:29.309Z,7.46
2023-05-17T01:26:17.571Z,7.32
2023-05-17T01:28:46.337Z,7.51
2023-05-17T01:31:13.287Z,7.52
2023-05-17T01:33:40.110Z,7.43
2023-05-17T01:36:07.237Z,7.34
2023-05-17T01:38:33.685Z,7.45
2023-05-17T01:41:38.926Z,7.12
2023-05-17T01:44:27.071Z,7.44
2023-05-17T01:47:01.658Z,7.65
2023-05-17T01:49:33.584Z,7.41
2023-05-17T01:52:21.295Z,6.93
2023-05-17T01:54:54.282Z,7.01
2023-05-17T01:57:28.303Z,7.31
2023-05-17T01:59:57.933Z,7.48
2023-05-17T02:02:24.473Z,7.43
2023-05-17T02:04:51.673Z,7.51
2023-05-17T02:07:18.213Z,7.73
2023-05-17T02:09:44.625Z,7.91
2023-05-17T02:12:11.107Z,7.79
2023-05-17T02:14:37.540Z,7.58
2023-05-17T02:17:05.882Z,7.94
2023-05-17T02:19:32.614Z,7.58
2023-05-17T02:21:59.170Z,7.64
2023-05-17T02:24:25.639Z,7.55
2023-05-17T02:26:52.094Z,7.52
2023-05-17T02:29:18.601Z,7.40
2023-05-17T02:31:46.041Z,7.18
2023-05-17T02:34:12.498Z,7.35
2023-05-17T02:36:40.945Z,7.38
2023-05-17T02:39:07.408Z,7.18
2023-05-17T02:41:33.870Z,7.15
2023-05-17T02:44:00.452Z,7.48
2023-05-17T02:46:26.927Z,7.53
2023-05-17T02:48:53.362Z,7.66
2023-05-17T02:51:19.930Z,7.57
2023-05-17T02:53:46.334Z,7.61
2023-05-17T02:56:12.848Z,7.63
2023-05-17T02:58:39.388Z,7.42
2023-05-17T03:01:05.927Z,7.55
2023-05-17T03:03:32.563Z,7.64
2023-05-17T03:06:02.712Z,7.54
2023-05-17T03:08:29.162Z,7.37
2023-05-17T03:10:55.732Z,7.44
2023-05-17T03:13:22.186Z,7.31
2023-05-17T03:15:48.685Z,7.45
2023-05-17T03:18:15.402Z,7.36
2023-05-17T03:20:41.866Z,7.61
2023-05-17T03:23:08.363Z,7.71
2023-05-17T03:25:34.869Z,7.35
2023-05-17T03:28:01.488Z,7.45
2023-05-17T03:30:28.052Z,7.46
2023-05-17T03:32:55.173Z,7.50
2023-05-17T03:35:21.685Z,7.25
2023-05-17T03:37:48.132Z,7.46
2023-05-17T03:40:14.597Z,7.36
2023-05-17T03:42:41.367Z,7.34
2023-05-17T03:45:08.177Z,7.54
2023-05-17T03:47:34.867Z,6.79
2023-05-17T03:50:01.362Z,7.37
2023-05-17T03:52:27.814Z,7.36
2023-05-17T03:54:54.373Z,7.51
2023-05-17T03:57:21.525Z,7.08
2023-05-17T03:59:47.954Z,7.35
2023-05-17T04:02:16.810Z,7.35
2023-05-17T04:04:49.978Z,7.42
2023-05-17T04:07:17.342Z,7.45
2023-05-17T04:09:43.874Z,7.36
2023-05-17T04:12:10.821Z,7.41
2023-05-17T04:14:38.582Z,7.58
2023-05-17T04:17:05.246Z,7.73
2023-05-17T04:19:31.862Z,7.61
2023-05-17T04:21:58.416Z,7.61
2023-05-17T04:24:24.957Z,7.44
2023-05-17T04:26:51.445Z,7.97
2023-05-17T04:29:17.898Z,7.56
2023-05-17T04:31:44.351Z,7.44
2023-05-17T04:34:10.851Z,7.38
2023-05-17T04:36:37.359Z,7.81
2023-05-17T04:39:04.763Z,7.76
2023-05-17T04:41:31.959Z,7.93
2023-05-17T04:43:58.570Z,7.71
2023-05-17T04:46:25.096Z,7.73
2023-05-17T04:48:51.620Z,7.37
2023-05-17T04:51:18.176Z,7.73
2023-05-17T04:53:44.622Z,7.98
2023-05-17T04:56:11.091Z,7.87
2023-05-17T04:58:37.556Z,7.98
2023-05-17T05:01:05.898Z,7.75
2023-05-17T05:03:32.377Z,7.60
2023-05-17T05:05:58.975Z,7.69
2023-05-17T05:08:25.547Z,7.52
2023-05-17T05:10:51.988Z,8.15
2023-05-17T05:13:18.458Z,7.94
2023-05-17T05:15:45.001Z,8.02
2023-05-17T05:18:11.494Z,7.97
2023-05-17T05:20:38.071Z,8.01
2023-05-17T05:23:05.914Z,8.01
2023-05-17T05:25:32.929Z,8.00
2023-05-17T05:27:59.432Z,7.93
2023-05-17T05:30:25.934Z,7.97
2023-05-17T05:32:52.685Z,8.07
2023-05-17T05:35:19.504Z,8.28
2023-05-17T05:37:46.048Z,8.26
2023-05-17T05:40:13.041Z,8.01
2023-05-17T05:42:39.560Z,8.12
2023-05-17T05:45:06.986Z,8.18
2023-05-17T05:47:33.571Z,8.25
2023-05-17T05:50:00.071Z,8.18
2023-05-17T05:52:26.484Z,8.23
2023-05-17T05:54:52.956Z,8.04
2023-05-17T05:57:19.433Z,8.40
2023-05-17T05:59:45.978Z,8.05
2023-05-17T06:02:12.836Z,8.24
2023-05-17T06:04:45.192Z,8.39
2023-05-17T06:07:13.414Z,8.29
2023-05-17T06:09:40.265Z,8.18
2023-05-17T06:12:06.831Z,8.34
2023-05-17T06:14:33.385Z,8.18
2023-05-17T06:16:59.918Z,8.37
2023-05-17T06:19:26.908Z,8.35
2023-05-17T06:21:53.456Z,8.52
2023-05-17T06:24:19.964Z,8.31
2023-05-17T06:26:47.206Z,8.46
2023-05-17T06:29:13.651Z,8.83
2023-05-17T06:31:40.324Z,8.75
2023-05-17T06:34:06.958Z,8.79
2023-05-17T06:36:35.942Z,8.64
2023-05-17T06:39:04.123Z,9.03
2023-05-17T06:41:30.624Z,8.73
2023-05-17T06:43:57.189Z,9.03
2023-05-17T06:46:23.670Z,8.81
2023-05-17T06:48:51.324Z,9.02
2023-05-17T06:51:18.160Z,9.00
2023-05-17T06:53:44.698Z,9.16
2023-05-17T06:56:11.279Z,9.24
2023-05-17T06:58:37.823Z,9.23
2023-05-17T07:01:04.390Z,9.46
2023-05-17T07:03:30.969Z,9.34
2023-05-17T07:05:57.519Z,9.50
2023-05-17T07:08:24.010Z,9.45
2023-05-17T07:10:53.663Z,9.14
2023-05-17T07:13:20.651Z,9.31
2023-05-17T07:15:47.227Z,9.61
2023-05-17T07:18:13.846Z,9.17
2023-05-17T07:20:40.446Z,9.26
2023-05-17T07:23:07.683Z,9.52
2023-05-17T07:25:34.365Z,9.21
2023-05-17T07:28:00.980Z,9.51
2023-05-17T07:30:27.551Z,9.52
2023-05-17T07:32:54.026Z,9.65
2023-05-17T07:35:21.814Z,9.85
2023-05-17T07:37:48.811Z,9.87
2023-05-17T07:40:15.477Z,9.52
2023-05-17T07:42:42.172Z,9.70
2023-05-17T07:45:09.222Z,10.10
2023-05-17T07:47:35.795Z,9.99
2023-05-17T07:50:03.955Z,10.17
2023-05-17T07:52:30.444Z,10.09
2023-05-17T07:54:56.864Z,10.37
2023-05-17T07:57:23.484Z,10.29
2023-05-17T07:59:50.114Z,10.36
2023-05-17T08:02:16.594Z,9.97
2023-05-17T08:04:43.179Z,10.29
2023-05-17T08:07:09.706Z,10.57
2023-05-17T08:09:36.266Z,10.52
2023-05-17T08:12:02.917Z,10.41
2023-05-17T08:14:29.477Z,10.40
2023-05-17T08:16:56.040Z,10.45
2023-05-17T08:19:22.725Z,10.59
2023-05-17T08:21:49.596Z,10.48
2023-05-17T08:24:17.562Z,10.52
2023-05-17T08:26:44.034Z,10.54
2023-05-17T08:29:10.578Z,10.73
2023-05-17T08:31:37.007Z,10.55
2023-05-17T08:34:03.561Z,10.96
2023-05-17T08:36:30.127Z,10.76
2023-05-17T08:38:56.599Z,10.84
2023-05-17T08:41:23.157Z,11.19
2023-05-17T08:43:50.972Z,10.94
2023-05-17T08:46:21.748Z,11.00
2023-05-17T08:48:50.385Z,11.10
2023-05-17T08:51:18.288Z,11.19
2023-05-17T08:53:47.224Z,11.29
2023-05-17T08:56:16.466Z,11.16
2023-05-17T08:58:55.581Z,11.23
2023-05-17T09:01:25.796Z,11.28
2023-05-17T09:03:53.662Z,11.36
2023-05-17T09:06:21.699Z,11.56
2023-05-17T09:08:52.650Z,11.26
2023-05-17T09:11:30.176Z,11.14
2023-05-17T09:14:01.511Z,11.60
2023-05-17T09:16:29.277Z,11.46
2023-05-17T09:18:56.930Z,11.10
2023-05-17T09:21:24.820Z,11.07
2023-05-17T09:24:02.296Z,11.36
2023-05-17T09:27:02.915Z,11.69
2023-05-17T09:29:32.563Z,11.68
2023-05-17T09:32:25.466Z,11.74
2023-05-17T09:34:52.471Z,11.73
2023-05-17T09:37:20.760Z,11.79
2023-05-17T09:39:48.196Z,12.20
2023-05-17T09:42:16.555Z,12.08
2023-05-17T09:44:54.535Z,12.11
2023-05-17T09:47:28.706Z,11.94
2023-05-17T09:50:00.692Z,12.02
2023-05-17T09:52:31.796Z,12.08
2023-05-17T09:55:00.332Z,12.01
2023-05-17T09:57:28.830Z,12.02
2023-05-17T09:59:57.322Z,11.91
2023-05-17T10:02:31.025Z,11.99
2023-05-17T10:04:58.504Z,11.84
2023-05-17T10:07:26.631Z,12.18
2023-05-17T10:09:55.636Z,12.09
2023-05-17T10:12:25.017Z,12.11
2023-05-17T10:14:55.921Z,11.83
2023-05-17T10:17:26.570Z,11.72
2023-05-17T10:19:54.588Z,12.02
2023-05-17T10:22:23.681Z,11.89
2023-05-17T10:24:51.683Z,12.02
2023-05-17T10:27:18.930Z,12.21
2023-05-17T10:29:49.270Z,12.05
2023-05-17T10:32:19.304Z,12.34
2023-05-17T10:34:51.824Z,12.47
2023-05-17T10:37:25.010Z,11.68
2023-05-17T10:39:52.565Z,12.10
2023-05-17T10:42:20.054Z,11.72
2023-05-17T10:44:47.993Z,11.62
2023-05-17T10:47:15.378Z,12.14
2023-05-17T10:49:47.684Z,12.21
2023-05-17T10:52:17.459Z,12.10
2023-05-17T10:54:45.585Z,12.47
2023-05-17T10:57:39.064Z,12.38
2023-05-17T11:00:19.344Z,12.31
2023-05-17T11:02:48.525Z,12.23
2023-05-17T11:05:25.557Z,12.14
2023-05-17T11:07:52.217Z,12.22
2023-05-17T11:10:18.698Z,12.21
2023-05-17T11:12:49.312Z,12.24
2023-05-17T11:15:17.178Z,12.20
2023-05-17T11:17:43.995Z,11.97
2023-05-17T11:20:31.934Z,12.04
2023-05-17T11:23:05.146Z,12.20
2023-05-17T11:25:36.161Z,12.14
2023-05-17T11:28:17.671Z,12.70
2023-05-17T11:30:51.171Z,12.50
2023-05-17T11:33:32.405Z,12.35
2023-05-17T11:36:06.816Z,12.22
2023-05-17T11:38:34.251Z,12.69
2023-05-17T11:41:26.496Z,12.88
2023-05-17T11:43:53.317Z,12.94
2023-05-17T11:46:21.800Z,12.77
2023-05-17T11:48:50.946Z,12.75
2023-05-17T11:51:18.102Z,12.82
2023-05-17T11:53:44.856Z,12.99
2023-05-17T11:56:11.726Z,13.22
2023-05-17T11:58:38.407Z,13.30
2023-05-17T12:01:05.919Z,13.12
2023-05-17T12:03:33.666Z,13.32
2023-05-17T12:06:13.216Z,13.31
2023-05-17T12:08:43.587Z,12.96
2023-05-17T12:11:13.333Z,13.00
2023-05-17T12:13:42.703Z,13.11
2023-05-17T12:16:16.813Z,13.55
2023-05-17T12:18:48.781Z,13.57
2023-05-17T12:21:16.705Z,13.20
2023-05-17T12:23:46.305Z,13.32
2023-05-17T12:26:16.128Z,12.67
2023-05-17T12:28:43.695Z,12.89
2023-05-17T12:31:13.465Z,12.75
2023-05-17T12:33:42.668Z,12.74
2023-05-17T12:36:11.437Z,12.75
2023-05-17T12:38:40.597Z,12.64
2023-05-17T12:41:09.240Z,12.75
2023-05-17T12:43:38.139Z,12.36
2023-05-17T12:46:18.833Z,12.41
2023-05-17T12:48:46.325Z,12.42
2023-05-17T12:51:23.611Z,12.98
2023-05-17T12:53:59.546Z,12.81
2023-05-17T12:56:29.756Z,12.46
2023-05-17T12:59:06.613Z,12.46
2023-05-17T13:01:42.050Z,12.80
2023-05-17T13:04:08.562Z,12.81
2023-05-17T13:06:52.764Z,13.14
2023-05-17T13:09:21.846Z,13.35
2023-05-17T13:11:51.355Z,13.52
2023-05-17T13:14:43.456Z,13.40
2023-05-17T13:17:22.556Z,13.45
2023-05-17T13:19:49.208Z,13.73
2023-05-17T13:22:15.954Z,13.49
2023-05-17T13:24:43.988Z,13.45
2023-05-17T13:27:11.834Z,13.49
2023-05-17T13:29:41.603Z,13.26
2023-05-17T13:32:09.999Z,13.34
2023-05-17T13:34:36.973Z,12.72
2023-05-17T13:37:04.461Z,13.13
2023-05-17T13:39:30.932Z,12.87
2023-05-17T13:41:58.958Z,12.90
2023-05-17T13:44:25.543Z,12.68
2023-05-17T13:46:52.054Z,12.95
2023-05-17T13:49:18.797Z,12.83
2023-05-17T13:51:45.920Z,12.81
2023-05-17T13:54:12.597Z,13.14
2023-05-17T13:56:39.152Z,13.09
2023-05-17T13:59:05.644Z,12.96
2023-05-17T14:01:32.124Z,13.13
2023-05-17T14:04:00.557Z,13.13
2023-05-17T14:06:27.561Z,13.35
2023-05-17T14:08:55.808Z,13.02
2023-05-17T14:11:22.556Z,13.17
2023-05-17T14:13:49.340Z,12.93
2023-05-17T14:16:15.882Z,13.15
2023-05-17T14:18:43.004Z,12.94
2023-05-17T14:21:09.631Z,13.38
2023-05-17T14:23:36.131Z,13.40
2023-05-17T14:26:06.967Z,13.19
2023-05-17T14:28:35.987Z,12.98
2023-05-17T14:31:02.444Z,12.95
2023-05-17T14:33:28.970Z,12.73
2023-05-17T14:35:55.431Z,12.94
2023-05-17T14:38:23.008Z,13.18
2023-05-17T14:40:49.611Z,13.07
2023-05-17T14:43:16.591Z,13.24
2023-05-17T14:45:43.035Z,13.36
2023-05-17T14:48:09.649Z,13.21
2023-05-17T14:50:36.312Z,13.28
2023-05-17T14:53:02.966Z,13.21
2023-05-17T14:55:30.030Z,13.18
2023-05-17T14:57:57.969Z,13.19
2023-05-17T15:00:24.798Z,13.21
2023-05-17T15:02:51.294Z,13.03
2023-05-17T15:05:18.579Z,13.44
2023-05-17T15:07:45.170Z,13.44
2023-05-17T15:10:12.997Z,13.20
2023-05-17T15:12:39.438Z,13.12
2023-05-17T15:15:06.704Z,12.97
2023-05-17T15:17:33.852Z,13.26
2023-05-17T15:20:00.591Z,13.24
2023-05-17T15:22:27.080Z,13.08
2023-05-17T15:24:54.324Z,13.20
2023-05-17T15:27:21.000Z,13.12
2023-05-17T15:29:47.461Z,12.77
2023-05-17T15:32:14.007Z,13.10
2023-05-17T15:34:41.102Z,13.40
2023-05-17T15:37:07.644Z,13.26
2023-05-17T15:39:34.160Z,13.36
2023-05-17T15:42:00.899Z,13.04
2023-05-17T15:44:29.504Z,12.90
2023-05-17T15:46:56.121Z,12.84
2023-05-17T15:49:22.640Z,13.25
2023-05-17T15:51:49.233Z,13.13
2023-05-17T15:54:15.791Z,13.06
2023-05-17T15:56:42.715Z,13.37
2023-05-17T15:59:09.288Z,13.11
2023-05-17T16:01:35.875Z,13.14
2023-05-17T16:04:02.482Z,12.76
2023-05-17T16:06:34.821Z,12.69
2023-05-17T16:09:02.968Z,13.01
2023-05-17T16:11:29.600Z,13.03
2023-05-17T16:13:57.064Z,13.05
2023-05-17T16:16:23.811Z,13.03
2023-05-17T16:18:50.603Z,13.23
2023-05-17T16:21:17.215Z,13.29
2023-05-17T16:23:43.721Z,13.28
2023-05-17T16:26:10.765Z,12.86
2023-05-17T16:28:37.333Z,12.94
2023-05-17T16:31:05.707Z,13.00
2023-05-17T16:33:32.410Z,12.86
2023-05-17T16:35:59.229Z,12.77
2023-05-17T16:38:26.237Z,12.70
2023-05-17T16:40:52.801Z,12.68
2023-05-17T16:43:19.330Z,12.65
2023-05-17T16:45:46.424Z,12.61
2023-05-17T16:48:17.395Z,12.85
2023-05-17T16:50:43.990Z,12.85
2023-05-17T16:53:10.703Z,12.74
2023-05-17T16:55:37.303Z,12.30
2023-05-17T16:58:04.862Z,12.54
2023-05-17T17:00:32.098Z,12.88
2023-05-17T17:02:59.289Z,12.45
2023-05-17T17:05:26.967Z,12.70
2023-05-17T17:07:54.057Z,12.62
2023-05-17T17:10:21.076Z,12.64
2023-05-17T17:12:48.133Z,12.36
2023-05-17T17:15:15.562Z,12.43
2023-05-17T17:17:42.635Z,12.40
2023-05-17T17:20:09.756Z,12.41
2023-05-17T17:22:36.388Z,12.18
2023-05-17T17:25:03.287Z,12.05
2023-05-17T17:27:29.841Z,12.18
2023-05-17T17:29:56.474Z,12.44
2023-05-17T17:32:23.290Z,12.31
2023-05-17T17:34:49.837Z,12.25
2023-05-17T17:37:16.337Z,12.13
2023-05-17T17:39:42.840Z,12.32
2023-05-17T17:42:10.520Z,12.33
2023-05-17T17:44:37.054Z,12.19
2023-05-17T17:47:03.747Z,12.10
2023-05-17T17:49:30.319Z,11.85
2023-05-17T17:51:58.161Z,11.66
2023-05-17T17:54:24.715Z,11.63
2023-05-17T17:56:52.073Z,11.80
2023-05-17T17:59:18.630Z,11.74
2023-05-17T18:01:45.232Z,11.74
2023-05-17T18:04:13.546Z,11.87
2023-05-17T18:06:41.818Z,11.61
2023-05-17T18:09:08.660Z,11.69
2023-05-17T18:11:35.236Z,11.68
2023-05-17T18:14:02.627Z,11.82
2023-05-17T18:16:29.328Z,11.73
2023-05-17T18:18:55.973Z,11.40
2023-05-17T18:21:22.528Z,11.55
2023-05-17T18:23:49.027Z,11.50
2023-05-17T18:26:15.457Z,11.32
2023-05-17T18:28:43.055Z,11.39
2023-05-17T18:31:10.143Z,11.36
2023-05-17T18:33:36.706Z,11.14
2023-05-17T18:36:03.505Z,11.22
2023-05-17T18:38:29.987Z,11.26
2023-05-17T18:40:56.483Z,11.28
2023-05-17T18:43:23.128Z,10.85
2023-05-17T18:45:49.600Z,11.13
2023-05-17T18:48:16.186Z,11.38
2023-05-17T18:50:43.090Z,11.22
2023-05-17T18:53:09.846Z,11.32
2023-05-17T18:55:36.476Z,11.10
2023-05-17T18:58:02.949Z,11.16
2023-05-17T19:00:29.543Z,11.04
2023-05-17T19:02:56.312Z,10.77
2023-05-17T19:05:22.865Z,10.76
2023-05-17T19:07:49.444Z,10.78
2023-05-17T19:10:16.010Z,10.89
2023-05-17T19:12:45.650Z,10.82
2023-05-17T19:15:12.795Z,10.62
2023-05-17T19:17:39.545Z,10.43
2023-05-17T19:20:07.735Z,10.38
2023-05-17T19:22:35.692Z,10.30
2023-05-17T19:25:02.300Z,10.03
2023-05-17T19:27:29.026Z,10.08
2023-05-17T19:29:55.812Z,9.83
2023-05-17T19:32:22.837Z,9.90
2023-05-17T19:34:49.853Z,9.85
2023-05-17T19:37:16.544Z,9.71
2023-05-17T19:39:43.177Z,9.52
2023-05-17T19:42:09.848Z,9.60
2023-05-17T19:44:36.322Z,9.11
2023-05-17T19:47:02.789Z,9.19
2023-05-17T19:49:29.292Z,8.96
2023-05-17T19:52:00.423Z,9.03
2023-05-17T19:54:30.398Z,8.71
2023-05-17T19:56:57.468Z,8.61
2023-05-17T19:59:23.960Z,8.32
2023-05-17T20:01:50.815Z,8.30
2023-05-17T20:04:17.465Z,8.34
2023-05-17T20:06:44.074Z,8.03
2023-05-17T20:09:10.664Z,8.14
2023-05-17T20:11:37.405Z,8.19
2023-05-17T20:14:03.919Z,8.16
2023-05-17T20:16:30.931Z,8.07
2023-05-17T20:19:01.051Z,7.99
2023-05-17T20:21:27.960Z,7.88
2023-05-17T20:24:01.222Z,7.90
2023-05-17T20:26:31.869Z,7.77
2023-05-17T20:28:59.106Z,7.51
2023-05-17T20:31:25.917Z,7.45
2023-05-17T20:33:52.949Z,7.28
2023-05-17T20:36:19.519Z,6.89
2023-05-17T20:38:46.082Z,7.02
2023-05-17T20:41:14.796Z,6.85
2023-05-17T20:43:46.375Z,6.96
2023-05-17T20:46:13.837Z,6.86
2023-05-17T20:48:42.698Z,6.94
2023-05-17T20:51:10.325Z,6.66
2023-05-17T20:53:37.474Z,6.82
2023-05-17T20:56:04.154Z,6.79
2023-05-17T20:58:31.019Z,6.86
2023-05-17T21:00:59.823Z,6.68
2023-05-17T21:03:33.299Z,6.46
2023-05-17T21:06:05.066Z,6.56
2023-05-17T21:08:32.754Z,6.41
2023-05-17T21:10:59.562Z,6.39
2023-05-17T21:13:26.734Z,6.43
2023-05-17T21:15:56.633Z,6.29
2023-05-17T21:18:23.691Z,6.44
2023-05-17T21:20:51.313Z,6.37
2023-05-17T21:23:18.791Z,6.11
2023-05-17T21:25:45.483Z,6.32
2023-05-17T21:28:12.057Z,6.23
2023-05-17T21:30:38.658Z,6.22
2023-05-17T21:33:05.656Z,6.11
2023-05-17T21:35:32.396Z,5.89
2023-05-17T21:37:58.874Z,5.84
2023-05-17T21:40:25.482Z,6.24
2023-05-17T21:42:52.067Z,6.27
2023-05-17T21:45:18.581Z,6.46
2023-05-17T21:47:45.086Z,6.25
2023-05-17T21:50:11.604Z,6.44
2023-05-17T21:52:38.109Z,6.01
2023-05-17T21:55:05.133Z,6.26
2023-05-17T21:57:35.820Z,6.32
2023-05-17T22:00:07.800Z,6.06
2023-05-17T22:02:35.862Z,6.27
2023-05-17T22:05:02.500Z,6.19
2023-05-17T22:07:29.067Z,5.99
2023-05-17T22:09:55.612Z,6.07
2023-05-17T22:12:25.310Z,5.92
2023-05-17T22:14:53.394Z,5.98
2023-05-17T22:17:29.604Z,5.92
2023-05-17T22:20:11.247Z,5.76
2023-05-17T22:22:37.836Z,5.68
2023-05-17T22:25:06.704Z,5.74
2023-05-17T22:27:33.204Z,5.61
2023-05-17T22:29:59.661Z,5.55
2023-05-17T22:32:26.265Z,5.48
2023-05-17T22:34:53.050Z,5.37
2023-05-17T22:37:22.709Z,5.43
2023-05-17T22:39:49.644Z,5.34
2023-05-17T22:42:16.242Z,5.53
2023-05-17T22:44:42.728Z,5.27
2023-05-17T22:47:09.238Z,5.28
2023-05-17T22:49:35.890Z,5.25
2023-05-17T22:52:07.591Z,5.06
2023-05-17T22:54:38.075Z,5.10
2023-05-17T22:57:05.258Z,5.00
2023-05-17T22:59:32.810Z,5.01
2023-05-17T23:01:59.641Z,4.87
2023-05-17T23:04:29.891Z,4.96
2023-05-17T23:07:02.072Z,4.85
2023-05-17T23:09:29.976Z,5.00
2023-05-17T23:12:06.283Z,4.80
2023-05-17T23:14:36.021Z,4.95
2023-05-17T23:17:03.953Z,4.81
2023-05-17T23:19:30.673Z,4.92
2023-05-17T23:21:57.833Z,4.80
2023-05-17T23:24:25.761Z,4.79
2023-05-17T23:26:52.653Z,4.76
2023-05-17T23:29:19.065Z,4.64
2023-05-17T23:31:47.974Z,4.61
2023-05-17T23:34:15.067Z,4.75
2023-05-17T23:36:41.661Z,4.65
2023-05-17T23:39:08.759Z,4.66
2023-05-17T23:41:37.841Z,4.59
2023-05-17T23:44:05.352Z,4.61
2023-05-17T23:46:32.089Z,4.50
2023-05-17T23:48:58.614Z,4.04
2023-05-17T23:51:25.139Z,4.25
2023-05-17T23:53:51.656Z,4.27
2023-05-17T23:56:18.994Z,4.28
2023-05-17T23:58:46.334Z,4.22
